Time;durP1;ratioP1;P1;durP2;ratioP2;P2;SDS_P1;SDS_P2;PMS_P1;PMS_P2;Temp;Humidity;BMP_temperature;BMP_pressure;BME280_temperature;BME280_humidity;BME280_pressure;Samples;Min_cycle;Max_cycle;Signal;HPM_P1;HPM_P2
2022/07/25 00:01:24;;;;;;;0.00;0.00;;;22.90;99.90;;;;;;5046449;28;20047;-67
2022/07/25 00:03:49;;;;;;;0.17;0.17;;;23.00;99.90;;;;;;5036481;28;20041;-66
2022/07/25 00:06:15;;;;;;;0.20;0.20;;;22.90;99.90;;;;;;5046631;28;20135;-66
2022/07/25 00:08:41;;;;;;;0.10;0.10;;;22.90;99.90;;;;;;5048748;28;20049;-66
2022/07/25 00:11:06;;;;;;;0.20;0.20;;;22.90;99.90;;;;;;5041859;28;20037;-67
2022/07/25 00:13:32;;;;;;;0.05;0.05;;;22.80;99.90;;;;;;5034567;28;20037;-66
2022/07/25 00:15:58;;;;;;;0.17;0.17;;;22.80;99.90;;;;;;5044270;28;20057;-66
2022/07/25 00:18:23;;;;;;;1.85;1.10;;;22.80;99.90;;;;;;5033199;28;20700;-66
2022/07/25 00:20:49;;;;;;;0.10;0.10;;;22.80;99.90;;;;;;5040345;28;20041;-66
2022/07/25 00:23:15;;;;;;;0.40;0.40;;;22.80;99.90;;;;;;5041862;28;20045;-67
2022/07/25 00:25:41;;;;;;;0.30;0.30;;;22.80;99.90;;;;;;5046129;28;20037;-67
2022/07/25 00:28:06;;;;;;;0.05;0.05;;;22.70;99.90;;;;;;5039597;28;20468;-66
2022/07/25 00:30:32;;;;;;;0.03;0.00;;;22.80;99.90;;;;;;5048062;28;20094;-66
2022/07/25 00:32:57;;;;;;;0.30;0.20;;;22.70;99.90;;;;;;5042444;28;20041;-67
2022/07/25 00:35:23;;;;;;;0.10;0.10;;;22.70;99.90;;;;;;5036935;28;20084;-66
2022/07/25 00:37:48;;;;;;;0.47;0.38;;;22.70;99.90;;;;;;5033982;28;20485;-67
2022/07/25 00:40:14;;;;;;;0.00;0.00;;;22.60;99.90;;;;;;5036835;28;20060;-66
2022/07/25 00:42:40;;;;;;;0.00;0.00;;;22.60;99.90;;;;;;5046270;28;20045;-66
2022/07/25 00:45:06;;;;;;;0.00;0.00;;;22.60;99.90;;;;;;5043023;28;20037;-66
2022/07/25 00:47:31;;;;;;;0.10;0.10;;;22.60;99.90;;;;;;5037895;28;20477;-66
2022/07/25 00:49:57;;;;;;;1.90;1.15;;;22.50;99.90;;;;;;5048107;28;20056;-67
2022/07/25 00:52:23;;;;;;;0.00;0.00;;;22.60;99.90;;;;;;5044184;28;20098;-66
2022/07/25 00:54:49;;;;;;;0.08;0.08;;;22.60;99.90;;;;;;5037060;28;20069;-67
2022/07/25 00:57:14;;;;;;;0.10;0.10;;;22.50;99.90;;;;;;5035673;28;20126;-67
2022/07/25 00:59:40;;;;;;;0.25;0.25;;;22.50;99.90;;;;;;5032780;28;20042;-66
2022/07/25 01:02:06;;;;;;;0.20;0.20;;;22.50;99.90;;;;;;5036010;28;20056;-66
2022/07/25 01:04:31;;;;;;;1.55;1.45;;;22.40;99.90;;;;;;5036357;28;20063;-66
2022/07/25 01:06:58;;;;;;;0.00;0.00;;;22.40;99.90;;;;;;5043093;28;20255;-66
2022/07/25 01:09:25;;;;;;;0.00;0.00;;;22.40;99.90;;;;;;5047750;28;20049;-67
2022/07/25 01:11:51;;;;;;;0.22;0.10;;;22.40;99.90;;;;;;5043598;28;20040;-66
2022/07/25 01:14:16;;;;;;;1.85;1.02;;;22.30;99.90;;;;;;5044524;28;20033;-66
2022/07/25 01:16:42;;;;;;;0.32;0.22;;;22.30;99.90;;;;;;5041873;28;20074;-66
2022/07/25 01:19:08;;;;;;;0.75;0.75;;;22.30;99.90;;;;;;5047952;28;20068;-66
2022/07/25 01:21:37;;;;;;;0.00;0.00;;;22.30;99.90;;;;;;5049095;28;20043;-66
2022/07/25 01:24:03;;;;;;;0.30;0.30;;;22.30;99.90;;;;;;5042146;28;20102;-66
2022/07/25 01:26:29;;;;;;;0.30;0.30;;;22.20;99.90;;;;;;5040137;28;20283;-66
2022/07/25 01:28:55;;;;;;;0.20;0.20;;;22.20;99.90;;;;;;5046388;28;20094;-66
2022/07/25 01:31:21;;;;;;;0.17;0.17;;;22.20;99.90;;;;;;5042562;28;20099;-66
2022/07/25 01:33:47;;;;;;;0.10;0.10;;;22.20;99.90;;;;;;5047102;28;20498;-66
2022/07/25 01:36:13;;;;;;;0.15;0.15;;;22.20;99.90;;;;;;5041344;28;20046;-66
2022/07/25 01:38:39;;;;;;;0.00;0.00;;;22.20;99.90;;;;;;5038972;28;20057;-66
2022/07/25 01:41:04;;;;;;;0.00;0.00;;;22.20;99.90;;;;;;5046852;28;20045;-66
2022/07/25 01:43:30;;;;;;;0.00;0.00;;;22.10;99.90;;;;;;5041702;28;20041;-66
2022/07/25 01:45:56;;;;;;;0.20;0.20;;;22.10;99.90;;;;;;5046865;28;20388;-66
2022/07/25 01:48:21;;;;;;;0.40;0.20;;;22.10;99.90;;;;;;5034311;28;20049;-66
2022/07/25 01:50:47;;;;;;;0.20;0.13;;;22.10;99.90;;;;;;5046648;28;20543;-66
2022/07/25 01:53:13;;;;;;;1.40;0.38;;;22.20;99.90;;;;;;5041188;28;20132;-66
2022/07/25 01:55:38;;;;;;;1.80;0.35;;;22.20;99.90;;;;;;5036912;28;20088;-66
2022/07/25 01:58:04;;;;;;;0.08;0.08;;;22.20;99.90;;;;;;5047434;28;20060;-66
2022/07/25 02:00:29;;;;;;;0.00;0.00;;;22.10;99.90;;;;;;5049713;28;20053;-66
2022/07/25 02:05:40;;;;;;;0.38;0.38;;;22.10;99.90;;;;;;5046017;28;20427;-66
2022/07/25 02:08:05;;;;;;;0.90;0.35;;;22.10;99.90;;;;;;5043548;28;20041;-67
2022/07/25 02:10:31;;;;;;;0.00;0.00;;;22.00;99.90;;;;;;5046438;28;20052;-66
2022/07/25 02:12:57;;;;;;;0.32;0.30;;;22.10;99.90;;;;;;5034561;28;20042;-66
2022/07/25 02:15:22;;;;;;;0.15;0.15;;;22.10;99.90;;;;;;5041399;28;20049;-66
2022/07/25 02:17:48;;;;;;;1.95;0.93;;;22.20;99.90;;;;;;5035232;28;20047;-66
2022/07/25 02:20:14;;;;;;;0.00;0.00;;;22.20;99.90;;;;;;5041992;28;20042;-66
2022/07/25 02:22:39;;;;;;;0.00;0.00;;;22.30;99.90;;;;;;5038463;28;20041;-66
2022/07/25 02:25:05;;;;;;;0.32;0.32;;;22.30;99.90;;;;;;5046548;28;20076;-66
2022/07/25 02:27:31;;;;;;;0.00;0.00;;;22.20;99.90;;;;;;5041052;28;20127;-66
2022/07/25 02:29:57;;;;;;;0.55;0.55;;;22.20;99.90;;;;;;5042135;28;20044;-66
2022/07/25 02:32:23;;;;;;;3.95;0.28;;;22.20;99.90;;;;;;5044475;28;20072;-66
2022/07/25 02:34:48;;;;;;;0.65;0.30;;;22.20;99.90;;;;;;5048810;28;20676;-66
2022/07/25 02:37:14;;;;;;;0.10;0.10;;;22.20;99.90;;;;;;5039186;28;20068;-66
2022/07/25 02:39:39;;;;;;;0.52;0.40;;;22.20;99.90;;;;;;5036542;28;20393;-66
2022/07/25 02:42:06;;;;;;;1.35;0.75;;;22.20;99.90;;;;;;5039913;28;20037;-66
2022/07/25 02:44:31;;;;;;;1.23;0.38;;;22.20;99.90;;;;;;5046317;28;20478;-66
2022/07/25 02:46:57;;;;;;;1.77;0.55;;;22.20;99.90;;;;;;5045602;28;20088;-66
2022/07/25 02:49:22;;;;;;;2.13;0.77;;;22.20;99.90;;;;;;5039931;28;20045;-66
2022/07/25 02:51:48;;;;;;;0.32;0.32;;;22.20;99.90;;;;;;5045239;28;20116;-66
2022/07/25 02:54:14;;;;;;;0.57;0.57;;;22.20;99.90;;;;;;5048691;28;20128;-66
2022/07/25 02:56:39;;;;;;;0.10;0.10;;;22.20;99.90;;;;;;5044776;28;20056;-66
2022/07/25 02:59:05;;;;;;;0.40;0.40;;;22.20;99.90;;;;;;5034914;28;20038;-66
2022/07/25 03:01:31;;;;;;;6.10;1.20;;;22.10;99.90;;;;;;5039129;28;20063;-66
2022/07/25 03:03:57;;;;;;;0.15;0.15;;;22.10;99.90;;;;;;5046289;28;20037;-66
2022/07/25 03:06:22;;;;;;;0.10;0.10;;;22.00;99.90;;;;;;5033127;28;20468;-66
2022/07/25 03:08:48;;;;;;;0.20;0.20;;;22.00;99.90;;;;;;5041089;28;20092;-66
2022/07/25 03:11:15;;;;;;;0.35;0.25;;;22.10;99.90;;;;;;5037404;28;20391;-66
2022/07/25 03:13:41;;;;;;;0.32;0.32;;;22.00;99.90;;;;;;5040481;28;20049;-66
2022/07/25 03:16:07;;;;;;;0.00;0.00;;;22.00;99.90;;;;;;5033894;28;20145;-66
2022/07/25 03:18:32;;;;;;;0.38;0.10;;;22.00;99.90;;;;;;5044787;28;20132;-66
2022/07/25 03:20:58;;;;;;;0.00;0.00;;;21.90;99.90;;;;;;5032758;28;20076;-66
2022/07/25 03:23:25;;;;;;;0.00;0.00;;;21.90;99.90;;;;;;5046319;28;20047;-66
2022/07/25 03:25:51;;;;;;;0.40;0.25;;;21.80;99.90;;;;;;5047178;28;20075;-66
2022/07/25 03:28:17;;;;;;;0.00;0.00;;;21.80;99.90;;;;;;5045843;28;20403;-66
2022/07/25 03:30:42;;;;;;;0.80;0.80;;;21.80;99.90;;;;;;5034582;28;20053;-66
2022/07/25 03:33:08;;;;;;;0.00;0.00;;;21.80;99.90;;;;;;5043985;28;20045;-66
2022/07/25 03:35:36;;;;;;;0.00;0.00;;;21.80;99.90;;;;;;5046882;28;20098;-66
2022/07/25 03:38:02;;;;;;;0.45;0.20;;;21.80;99.90;;;;;;5042325;28;20514;-66
2022/07/25 03:40:28;;;;;;;0.00;0.00;;;21.80;99.90;;;;;;5043373;28;20041;-66
2022/07/25 03:42:53;;;;;;;0.10;0.10;;;21.80;99.90;;;;;;5034052;28;20037;-66
2022/07/25 03:45:19;;;;;;;0.73;0.20;;;21.70;99.90;;;;;;5036469;28;20053;-66
2022/07/25 03:47:44;;;;;;;0.10;0.10;;;21.70;99.90;;;;;;5040445;28;20037;-66
2022/07/25 03:50:10;;;;;;;0.00;0.00;;;21.50;99.90;;;;;;5029377;28;20045;-66
2022/07/25 03:52:37;;;;;;;0.00;0.00;;;21.50;99.90;;;;;;5059674;28;20092;-66
2022/07/25 03:55:07;;;;;;;0.10;0.10;;;21.50;99.90;;;;;;5045611;28;20552;-66
2022/07/25 03:57:32;;;;;;;0.32;0.32;;;21.50;99.90;;;;;;5040909;28;20045;-66
2022/07/25 03:59:58;;;;;;;0.20;0.20;;;21.50;99.90;;;;;;5041244;28;20045;-66
2022/07/25 04:02:23;;;;;;;0.20;0.20;;;21.50;99.90;;;;;;5047223;28;20124;-66
2022/07/25 04:04:49;;;;;;;0.10;0.10;;;21.40;99.90;;;;;;5048553;28;20385;-66
2022/07/25 04:07:15;;;;;;;0.47;0.47;;;21.40;99.90;;;;;;5039058;28;20401;-66
2022/07/25 04:09:41;;;;;;;0.15;0.15;;;21.30;99.90;;;;;;5036993;28;20471;-66
2022/07/25 04:12:06;;;;;;;0.00;0.00;;;21.40;99.90;;;;;;5045840;28;20037;-66
2022/07/25 04:14:32;;;;;;;0.00;0.00;;;21.30;99.90;;;;;;5042803;28;20440;-66
2022/07/25 04:16:58;;;;;;;0.10;0.10;;;21.40;99.90;;;;;;5038911;28;20595;-66
2022/07/25 04:19:24;;;;;;;0.10;0.10;;;21.30;99.90;;;;;;5036414;28;20521;-66
2022/07/25 04:21:49;;;;;;;0.17;0.17;;;21.40;99.90;;;;;;5039374;28;20076;-66
2022/07/25 04:24:15;;;;;;;0.15;0.15;;;21.30;99.90;;;;;;5045643;28;20037;-66
2022/07/25 04:26:41;;;;;;;3.30;0.43;;;21.20;99.90;;;;;;5034078;28;20077;-66
2022/07/25 04:29:06;;;;;;;0.13;0.13;;;21.20;99.90;;;;;;5037652;28;20113;-66
2022/07/25 04:31:32;;;;;;;0.00;0.00;;;21.20;99.90;;;;;;5038309;28;20481;-66
2022/07/25 04:33:57;;;;;;;0.20;0.20;;;21.20;99.90;;;;;;5047674;28;20045;-66
2022/07/25 04:36:23;;;;;;;0.25;0.20;;;21.10;99.90;;;;;;5040710;28;20048;-66
2022/07/25 04:38:49;;;;;;;0.05;0.05;;;21.20;99.90;;;;;;5041580;28;20095;-66
2022/07/25 04:41:14;;;;;;;0.00;0.00;;;21.20;99.90;;;;;;5051041;28;20102;-66
2022/07/25 04:43:40;;;;;;;1.70;0.85;;;21.20;99.90;;;;;;5048161;28;20060;-66
2022/07/25 04:46:06;;;;;;;0.00;0.00;;;21.20;99.90;;;;;;5033782;28;20107;-66
2022/07/25 04:48:31;;;;;;;1.23;0.65;;;21.20;99.90;;;;;;5048677;28;20465;-66
2022/07/25 04:50:57;;;;;;;0.30;0.30;;;21.20;99.90;;;;;;5050123;28;20048;-66
2022/07/25 04:53:23;;;;;;;1.08;0.30;;;21.20;99.90;;;;;;5047413;28;20080;-66
2022/07/25 04:55:48;;;;;;;1.45;0.70;;;21.30;99.90;;;;;;5038074;28;20057;-66
2022/07/25 04:58:14;;;;;;;0.57;0.57;;;21.30;99.90;;;;;;5049168;28;20053;-66
2022/07/25 05:00:40;;;;;;;0.05;0.03;;;21.30;99.90;;;;;;5049151;28;20114;-66
2022/07/25 05:03:06;;;;;;;0.00;0.00;;;21.40;99.90;;;;;;5033668;28;20452;-66
2022/07/25 05:05:31;;;;;;;0.90;0.43;;;21.30;99.90;;;;;;5045565;28;20076;-66
2022/07/25 05:07:58;;;;;;;0.00;0.00;;;21.40;99.90;;;;;;5044980;28;20167;-66
2022/07/25 05:10:25;;;;;;;0.20;0.20;;;21.40;99.90;;;;;;5042621;28;20045;-66
2022/07/25 05:12:51;;;;;;;0.05;0.05;;;21.30;99.90;;;;;;5037638;28;20044;-66
2022/07/25 05:15:17;;;;;;;0.20;0.20;;;21.30;99.90;;;;;;5049804;28;20044;-66
2022/07/25 05:17:42;;;;;;;0.10;0.10;;;21.30;99.90;;;;;;5039376;28;20041;-66
2022/07/25 05:20:09;;;;;;;1.00;0.45;;;21.30;99.90;;;;;;5041041;28;20051;-66
2022/07/25 05:22:34;;;;;;;0.30;0.30;;;21.40;99.90;;;;;;5037929;28;20063;-66
2022/07/25 05:25:01;;;;;;;0.10;0.10;;;21.30;99.90;;;;;;5051064;28;20832;-66
2022/07/25 05:27:27;;;;;;;0.10;0.10;;;21.30;99.90;;;;;;5047776;28;20032;-66
2022/07/25 05:29:53;;;;;;;0.30;0.30;;;21.30;99.90;;;;;;5042094;28;20412;-66
2022/07/25 05:32:18;;;;;;;0.00;0.00;;;21.40;99.90;;;;;;5038964;28;20041;-66
2022/07/25 05:34:44;;;;;;;0.80;0.77;;;21.40;99.90;;;;;;5047742;28;20055;-66
2022/07/25 05:37:10;;;;;;;0.45;0.40;;;21.50;99.90;;;;;;5038458;28;20048;-66
2022/07/25 05:39:38;;;;;;;0.43;0.22;;;21.60;99.90;;;;;;5040139;28;20534;-66
2022/07/25 05:42:04;;;;;;;0.32;0.32;;;21.70;99.90;;;;;;5045259;28;20032;-66
2022/07/25 05:44:30;;;;;;;0.13;0.13;;;21.70;99.90;;;;;;5050090;28;20060;-66
2022/07/25 05:46:55;;;;;;;0.45;0.38;;;21.80;99.90;;;;;;5049577;28;20037;-66
2022/07/25 05:49:21;;;;;;;0.70;0.52;;;21.80;99.90;;;;;;5048523;28;20106;-66
2022/07/25 05:51:47;;;;;;;0.10;0.10;;;21.80;99.90;;;;;;5040285;28;20045;-66
2022/07/25 05:54:13;;;;;;;0.40;0.40;;;21.90;99.90;;;;;;5040250;28;20598;-66
2022/07/25 05:56:38;;;;;;;0.10;0.10;;;21.90;99.90;;;;;;5048717;28;20052;-66
2022/07/25 05:59:04;;;;;;;0.30;0.30;;;22.00;99.90;;;;;;5049500;28;20041;-66
2022/07/25 06:01:29;;;;;;;0.65;0.35;;;22.10;99.90;;;;;;5038713;28;20052;-66
2022/07/25 06:03:55;;;;;;;0.20;0.20;;;22.00;99.90;;;;;;5045386;28;20036;-66
2022/07/25 06:06:20;;;;;;;0.00;0.00;;;22.00;99.90;;;;;;5036476;28;20186;-66
2022/07/25 06:08:46;;;;;;;1.17;0.32;;;22.10;99.90;;;;;;5043132;28;20492;-66
2022/07/25 06:11:12;;;;;;;0.25;0.17;;;22.10;99.90;;;;;;5043436;28;20095;-66
2022/07/25 06:13:37;;;;;;;6.03;0.80;;;22.20;99.90;;;;;;5048643;28;20041;-66
2022/07/25 06:16:03;;;;;;;1.20;0.98;;;22.20;99.90;;;;;;5042559;28;20048;-66
2022/07/25 06:18:29;;;;;;;0.00;0.00;;;22.20;99.90;;;;;;5046020;28;20033;-66
2022/07/25 06:20:54;;;;;;;0.15;0.15;;;22.20;99.90;;;;;;5047624;28;20069;-66
2022/07/25 06:23:20;;;;;;;0.55;0.55;;;22.30;99.90;;;;;;5043706;28;20049;-66
2022/07/25 06:25:46;;;;;;;0.13;0.13;;;22.30;99.90;;;;;;5040092;28;20732;-66
2022/07/25 06:28:13;;;;;;;0.00;0.00;;;22.40;99.90;;;;;;5047286;28;20045;-66
2022/07/25 06:30:40;;;;;;;0.10;0.10;;;22.50;99.90;;;;;;5060689;28;20052;-66
2022/07/25 06:33:06;;;;;;;0.40;0.40;;;22.60;99.90;;;;;;5037744;28;20042;-66
2022/07/25 06:35:31;;;;;;;0.45;0.45;;;22.60;99.90;;;;;;5044369;28;20044;-66
2022/07/25 06:37:57;;;;;;;0.00;0.00;;;22.70;99.90;;;;;;5040289;28;20135;-66
2022/07/25 06:40:23;;;;;;;0.30;0.30;;;22.70;99.90;;;;;;5032005;28;20068;-66
2022/07/25 06:42:48;;;;;;;1.27;1.17;;;22.80;99.90;;;;;;5048882;28;20033;-66
2022/07/25 06:45:15;;;;;;;0.25;0.25;;;22.90;99.90;;;;;;5041753;28;20154;-66
2022/07/25 06:47:41;;;;;;;0.00;0.00;;;22.90;99.90;;;;;;5036993;28;20044;-66
2022/07/25 06:50:10;;;;;;;0.10;0.05;;;23.00;99.90;;;;;;5048078;28;20044;-66
2022/07/25 06:52:36;;;;;;;0.57;0.40;;;23.10;99.90;;;;;;5035983;28;20037;-66
2022/07/25 06:55:03;;;;;;;0.10;0.10;;;23.10;99.90;;;;;;5043627;28;20439;-66
2022/07/25 06:57:29;;;;;;;0.00;0.00;;;23.10;99.90;;;;;;5043151;28;20415;-66
2022/07/25 06:59:54;;;;;;;0.00;0.00;;;23.10;99.90;;;;;;5033607;28;20049;-66
2022/07/25 07:02:20;;;;;;;0.00;0.00;;;23.10;99.90;;;;;;5041965;28;20051;-67
2022/07/25 07:04:45;;;;;;;0.00;0.00;;;23.10;99.90;;;;;;5048630;28;20041;-66
2022/07/25 07:07:11;;;;;;;0.60;0.50;;;23.00;99.90;;;;;;5045057;28;20511;-66
2022/07/25 07:09:37;;;;;;;0.10;0.10;;;22.80;99.90;;;;;;5036217;28;20392;-66
2022/07/25 07:12:02;;;;;;;0.20;0.20;;;22.80;99.90;;;;;;5042285;28;20120;-66
2022/07/25 07:14:28;;;;;;;0.20;0.20;;;22.80;99.90;;;;;;5037736;28;20069;-66
2022/07/25 07:16:54;;;;;;;0.38;0.38;;;22.70;99.90;;;;;;5032917;28;20123;-65
2022/07/25 07:19:19;;;;;;;0.00;0.00;;;22.70;99.90;;;;;;5043749;28;20041;-66
2022/07/25 07:21:45;;;;;;;0.20;0.20;;;22.70;99.90;;;;;;5046638;28;20080;-66
2022/07/25 07:24:11;;;;;;;2.75;1.45;;;22.70;99.90;;;;;;5044718;28;20047;-66
2022/07/25 07:26:36;;;;;;;0.00;0.00;;;22.70;99.90;;;;;;5040452;28;20095;-66
2022/07/25 07:29:02;;;;;;;0.00;0.00;;;22.60;99.90;;;;;;5048688;28;20055;-66
2022/07/25 07:31:28;;;;;;;0.17;0.17;;;22.50;99.90;;;;;;5048121;28;20033;-66
2022/07/25 07:33:53;;;;;;;0.03;0.03;;;22.50;99.90;;;;;;5037828;28;20045;-65
2022/07/25 07:36:20;;;;;;;0.17;0.17;;;22.40;99.90;;;;;;5043223;28;20091;-66
2022/07/25 07:38:47;;;;;;;0.00;0.00;;;22.30;99.90;;;;;;5046743;28;20045;-66
2022/07/25 07:41:13;;;;;;;0.00;0.00;;;22.30;99.90;;;;;;5031376;28;20047;-66
2022/07/25 07:43:39;;;;;;;0.00;0.00;;;22.30;99.90;;;;;;5037170;28;20463;-66
2022/07/25 07:46:04;;;;;;;0.35;0.35;;;22.30;99.90;;;;;;5031091;28;20045;-66
2022/07/25 07:48:31;;;;;;;0.17;0.15;;;22.20;99.90;;;;;;5031826;28;20033;-66
2022/07/25 07:50:57;;;;;;;0.00;0.00;;;22.20;99.90;;;;;;5037389;28;20049;-66
2022/07/25 07:55:42;;;;;;;0.20;0.20;;;22.20;99.90;;;;;;5048307;28;20043;-66
2022/07/25 07:56:09;;;;;;;0.00;0.00;;;22.20;99.90;;;;;;5032202;28;20049;-66
2022/07/25 07:58:34;;;;;;;0.00;0.00;;;22.10;99.90;;;;;;5043381;28;20148;-66
2022/07/25 08:01:00;;;;;;;0.10;0.10;;;22.10;99.90;;;;;;5037229;28;20037;-66
2022/07/25 08:03:26;;;;;;;0.00;0.00;;;22.10;99.90;;;;;;5047643;28;20102;-66
2022/07/25 08:05:52;;;;;;;0.00;0.00;;;22.00;99.90;;;;;;5044673;28;20049;-66
2022/07/25 08:08:18;;;;;;;0.38;0.15;;;22.00;99.90;;;;;;5044897;28;20404;-67
2022/07/25 08:10:45;;;;;;;0.10;0.10;;;22.10;99.90;;;;;;5038040;28;20041;-66
2022/07/25 08:13:26;;;;;;;0.00;0.00;;;22.10;99.90;;;;;;5044856;28;20102;-66
2022/07/25 08:15:57;;;;;;;0.08;0.08;;;22.10;99.90;;;;;;5040342;28;20377;-66
2022/07/25 08:18:24;;;;;;;0.10;0.10;;;22.20;99.90;;;;;;5032595;28;20611;-67
2022/07/25 08:20:50;;;;;;;0.10;0.10;;;22.10;99.90;;;;;;5028315;28;20642;-66
2022/07/25 08:23:17;;;;;;;0.45;0.43;;;22.20;99.90;;;;;;5028052;28;20046;-66
2022/07/25 08:25:44;;;;;;;0.22;0.22;;;22.20;99.90;;;;;;5029374;28;20084;-66
2022/07/25 08:28:10;;;;;;;0.38;0.32;;;22.20;99.90;;;;;;5027571;28;20045;-66
2022/07/25 08:30:37;;;;;;;0.00;0.00;;;22.20;99.90;;;;;;5027487;28;20434;-66
2022/07/25 08:33:06;;;;;;;0.00;0.00;;;22.30;99.90;;;;;;5028167;28;20397;-66
2022/07/25 08:35:33;;;;;;;0.00;0.00;;;22.30;99.90;;;;;;5029842;28;20150;-65
2022/07/25 08:38:00;;;;;;;0.10;0.10;;;22.40;99.90;;;;;;5046996;28;20053;-65
2022/07/25 08:40:28;;;;;;;0.00;0.00;;;22.50;99.90;;;;;;5042265;28;20041;-66
2022/07/25 08:42:55;;;;;;;0.00;0.00;;;22.50;99.90;;;;;;5036313;28;20052;-66
2022/07/25 08:45:21;;;;;;;2.35;2.15;;;22.60;99.90;;;;;;5027325;28;20053;-66
2022/07/25 08:47:49;;;;;;;0.00;0.00;;;22.60;99.90;;;;;;5027409;28;20491;-66
2022/07/25 08:50:17;;;;;;;0.17;0.17;;;22.50;99.90;;;;;;5029176;28;20056;-65
2022/07/25 08:52:44;;;;;;;0.00;0.00;;;22.50;99.90;;;;;;5031380;28;20387;-66
2022/07/25 08:55:15;;;;;;;0.00;0.00;;;22.50;99.90;;;;;;5040226;28;20048;-65
2022/07/25 08:57:42;;;;;;;1.15;0.47;;;22.40;99.90;;;;;;5045264;28;20492;-65
2022/07/25 09:00:13;;;;;;;0.10;0.10;;;22.40;99.90;;;;;;5031146;28;20071;-66
2022/07/25 09:02:39;;;;;;;0.00;0.00;;;22.30;99.90;;;;;;5046927;28;20033;-65
2022/07/25 09:05:05;;;;;;;1.35;0.30;;;22.20;99.90;;;;;;5045616;28;20083;-65
2022/07/25 09:07:36;;;;;;;0.00;0.00;;;22.10;99.90;;;;;;5037922;28;20047;-66
2022/07/25 09:10:20;;;;;;;0.00;0.00;;;22.00;99.90;;;;;;5035924;28;20035;-66
2022/07/25 09:12:54;;;;;;;0.00;0.00;;;21.90;99.90;;;;;;5029010;28;20041;-65
2022/07/25 09:15:24;;;;;;;0.00;0.00;;;21.90;99.90;;;;;;5042797;28;20107;-66
2022/07/25 09:17:53;;;;;;;0.20;0.20;;;21.90;99.90;;;;;;5027890;28;20136;-66
2022/07/25 09:20:20;;;;;;;0.20;0.20;;;21.80;99.90;;;;;;5044314;28;20397;-65
2022/07/25 09:22:46;;;;;;;0.45;0.45;;;21.90;99.90;;;;;;5046770;28;20087;-65
2022/07/25 09:25:28;;;;;;;0.10;0.10;;;22.00;99.90;;;;;;5048960;28;20049;-66
2022/07/25 09:27:55;;;;;;;0.00;0.00;;;22.00;99.90;;;;;;5035938;28;20053;-65
2022/07/25 09:30:20;;;;;;;0.10;0.10;;;22.10;99.90;;;;;;5030935;28;20730;-66
2022/07/25 09:32:46;;;;;;;0.00;0.00;;;22.00;99.90;;;;;;5030354;28;20073;-66
2022/07/25 09:35:12;;;;;;;0.00;0.00;;;22.10;99.90;;;;;;5031256;28;20049;-65
2022/07/25 09:37:38;;;;;;;0.00;0.00;;;22.00;99.90;;;;;;5040995;28;20055;-66
2022/07/25 09:40:13;;;;;;;0.10;0.10;;;22.00;99.90;;;;;;5037947;28;20045;-66
2022/07/25 09:42:41;;;;;;;0.20;0.20;;;22.00;99.90;;;;;;5044892;28;20127;-66
2022/07/25 09:45:13;;;;;;;1.90;1.00;;;21.90;99.90;;;;;;5050973;28;20045;-66
2022/07/25 09:48:00;;;;;;;0.20;0.20;;;21.90;99.90;;;;;;5043443;28;20124;-66
2022/07/25 09:50:28;;;;;;;2.10;1.27;;;22.30;99.90;;;;;;5040564;28;20410;-65
2022/07/25 09:52:57;;;;;;;0.20;0.20;;;22.50;99.90;;;;;;5047854;28;20087;-66
2022/07/25 09:55:23;;;;;;;0.13;0.13;;;22.70;99.90;;;;;;5042433;28;20052;-65
2022/07/25 09:57:51;;;;;;;0.35;0.35;;;22.80;99.90;;;;;;5043250;28;20063;-65
2022/07/25 10:00:23;;;;;;;28.95;2.15;;;22.80;99.90;;;;;;5048457;28;20535;-66
2022/07/25 10:02:58;;;;;;;0.28;0.28;;;23.00;99.90;;;;;;5047370;28;20052;-65
2022/07/25 10:05:29;;;;;;;0.00;0.00;;;23.40;99.90;;;;;;5045442;28;20080;-66
2022/07/25 10:07:56;;;;;;;4.15;1.65;;;23.80;99.90;;;;;;5049726;28;20056;-65
2022/07/25 10:10:27;;;;;;;0.10;0.10;;;23.80;99.90;;;;;;5035166;28;20049;-66
2022/07/25 10:13:13;;;;;;;0.60;0.60;;;23.90;99.90;;;;;;5048206;28;20436;-66
2022/07/25 10:15:40;;;;;;;0.20;0.20;;;23.80;99.90;;;;;;5054620;28;20556;-66
2022/07/25 10:18:07;;;;;;;0.10;0.10;;;23.70;99.90;;;;;;5030472;28;20041;-66
2022/07/25 10:20:33;;;;;;;1.35;0.47;;;23.60;99.90;;;;;;5030241;28;20143;-66
2022/07/25 10:22:59;;;;;;;0.10;0.10;;;23.50;99.90;;;;;;5028958;28;20053;-66
2022/07/25 10:25:25;;;;;;;0.00;0.00;;;23.30;99.90;;;;;;5030321;28;20049;-66
2022/07/25 10:27:59;;;;;;;0.00;0.00;;;23.30;99.90;;;;;;5030510;28;20390;-66
2022/07/25 10:30:35;;;;;;;0.00;0.00;;;23.40;99.90;;;;;;5028852;28;20075;-66
2022/07/25 10:33:20;;;;;;;0.70;0.68;;;23.30;99.90;;;;;;5030103;28;20627;-66
2022/07/25 10:35:46;;;;;;;0.10;0.10;;;23.40;99.90;;;;;;5054608;28;20049;-66
2022/07/25 10:38:12;;;;;;;0.00;0.00;;;23.20;99.90;;;;;;5037236;28;20049;-66
2022/07/25 10:40:40;;;;;;;0.45;0.45;;;23.10;99.90;;;;;;5044469;28;20068;-66
2022/07/25 10:43:12;;;;;;;0.22;0.22;;;23.00;99.90;;;;;;5041452;28;20037;-66
2022/07/25 10:45:42;;;;;;;0.00;0.00;;;22.90;99.90;;;;;;5038245;28;20048;-66
2022/07/25 10:48:10;;;;;;;1.55;1.45;;;22.70;99.90;;;;;;5049665;28;20099;-66
2022/07/25 10:51:02;;;;;;;0.00;0.00;;;22.60;99.90;;;;;;5064278;28;20085;-66
2022/07/25 10:53:44;;;;;;;0.32;0.28;;;22.60;99.90;;;;;;5047971;28;20053;-66
2022/07/25 10:56:14;;;;;;;2.58;0.45;;;22.60;99.90;;;;;;5033970;28;20492;-66
2022/07/25 10:58:53;;;;;;;0.05;0.05;;;22.50;99.90;;;;;;5046769;28;20049;-66
2022/07/25 11:01:28;;;;;;;0.40;0.40;;;22.60;99.90;;;;;;5034815;28;20041;-66
2022/07/25 11:03:56;;;;;;;0.00;0.00;;;22.60;99.90;;;;;;5046746;28;20401;-66
2022/07/25 11:06:37;;;;;;;0.20;0.10;;;22.70;99.90;;;;;;5033444;28;20103;-66
2022/07/25 11:09:19;;;;;;;0.00;0.00;;;22.60;99.90;;;;;;5034437;28;20069;-66
2022/07/25 11:11:47;;;;;;;1.85;0.95;;;22.60;99.90;;;;;;5047523;28;20041;-66
2022/07/25 11:14:14;;;;;;;9.05;1.00;;;22.60;99.90;;;;;;5028007;28;20492;-66
2022/07/25 11:16:40;;;;;;;0.10;0.10;;;22.60;99.90;;;;;;5028790;28;20137;-66
2022/07/25 11:19:22;;;;;;;0.10;0.10;;;22.80;99.90;;;;;;5043238;28;20489;-66
2022/07/25 11:21:54;;;;;;;0.10;0.10;;;23.00;99.90;;;;;;5029350;28;20174;-66
2022/07/25 11:24:21;;;;;;;0.00;0.00;;;23.20;99.90;;;;;;5029121;28;20052;-66
2022/07/25 11:26:53;;;;;;;0.50;0.50;;;23.10;99.90;;;;;;5028362;28;20037;-66
2022/07/25 11:29:23;;;;;;;0.00;0.00;;;23.20;99.90;;;;;;5028933;28;20115;-66
2022/07/25 11:31:58;;;;;;;0.00;0.00;;;23.10;99.90;;;;;;5029619;28;20048;-66
2022/07/25 11:34:32;;;;;;;0.22;0.22;;;22.90;99.90;;;;;;5040318;28;20159;-66
2022/07/25 11:37:00;;;;;;;0.22;0.22;;;22.80;99.90;;;;;;5044417;28;20499;-66
2022/07/25 11:39:27;;;;;;;0.10;0.10;;;22.90;99.90;;;;;;5029114;28;20094;-66
2022/07/25 11:42:03;;;;;;;0.00;0.00;;;22.90;99.90;;;;;;5039719;28;20041;-66
2022/07/25 11:44:42;;;;;;;0.00;0.00;;;23.30;99.90;;;;;;5048912;28;20074;-66
2022/07/25 11:47:31;;;;;;;0.00;0.00;;;23.30;99.90;;;;;;5048121;28;20049;-66
2022/07/25 11:50:02;;;;;;;0.08;0.08;;;23.30;99.90;;;;;;5028721;28;20042;-67
2022/07/25 11:52:37;;;;;;;0.22;0.20;;;23.70;99.90;;;;;;5027628;28;20081;-66
2022/07/25 11:55:07;;;;;;;0.10;0.10;;;23.60;99.90;;;;;;5031328;28;20084;-67
2022/07/25 11:57:45;;;;;;;0.00;0.00;;;23.60;99.90;;;;;;5033432;28;20493;-67
2022/07/25 12:00:11;;;;;;;0.13;0.13;;;23.60;99.90;;;;;;5027228;28;20053;-67
2022/07/25 12:02:36;;;;;;;0.00;0.00;;;23.60;99.90;;;;;;5043691;28;20094;-67
2022/07/25 12:05:06;;;;;;;0.40;0.40;;;23.50;99.90;;;;;;5031434;28;20041;-67
2022/07/25 12:07:50;;;;;;;0.17;0.17;;;23.60;99.90;;;;;;5026557;28;20067;-66
2022/07/25 12:10:17;;;;;;;1.20;1.17;;;23.50;99.90;;;;;;5038334;28;20064;-66
2022/07/25 12:12:52;;;;;;;0.32;0.28;;;23.40;99.90;;;;;;5033441;28;20468;-66
2022/07/25 12:15:23;;;;;;;0.00;0.00;;;23.40;99.90;;;;;;5042323;28;20033;-66
2022/07/25 12:17:50;;;;;;;0.10;0.10;;;23.40;99.90;;;;;;5033011;28;20404;-66
2022/07/25 12:20:19;;;;;;;0.00;0.00;;;23.60;99.90;;;;;;5028170;28;20053;-66
2022/07/25 12:22:46;;;;;;;0.45;0.25;;;23.70;99.90;;;;;;5027716;28;20120;-67
2022/07/25 12:25:12;;;;;;;0.10;0.10;;;23.80;99.90;;;;;;5028338;28;20058;-66
2022/07/25 12:27:38;;;;;;;0.00;0.00;;;23.90;99.90;;;;;;5041080;28;20527;-66
2022/07/25 12:30:06;;;;;;;9.10;1.00;;;24.20;99.90;;;;;;5047438;28;20080;-67
2022/07/25 12:32:31;;;;;;;0.63;0.63;;;24.30;99.90;;;;;;5041841;28;20060;-67
2022/07/25 12:34:58;;;;;;;0.00;0.00;;;24.80;99.90;;;;;;5028528;28;20049;-67
2022/07/25 12:37:25;;;;;;;1.45;0.50;;;24.50;99.90;;;;;;5027537;28;20037;-67
2022/07/25 12:39:51;;;;;;;1.42;1.35;;;24.30;99.90;;;;;;5037452;28;20061;-67
2022/07/25 12:42:18;;;;;;;0.20;0.20;;;24.10;99.90;;;;;;5029971;28;20404;-67
2022/07/25 12:44:43;;;;;;;0.82;0.10;;;24.00;99.90;;;;;;5036731;28;20522;-67
2022/07/25 12:47:09;;;;;;;0.20;0.20;;;24.10;99.90;;;;;;5047468;28;20041;-66
2022/07/25 12:49:35;;;;;;;0.10;0.10;;;23.90;99.90;;;;;;5045776;28;20060;-66
2022/07/25 12:52:00;;;;;;;0.15;0.15;;;23.80;99.90;;;;;;5047691;28;20053;-67